Time;durP1;ratioP1;P1;durP2;ratioP2;P2;SDS_P1;SDS_P2;PMS_P1;PMS_P2;Temp;Humidity;BMP_temperature;BMP_pressure;BME280_temperature;BME280_humidity;BME280_pressure;Samples;Min_cycle;Max_cycle;Signal;HPM_P1;HPM_P2
2023/03/30 00:00:53;;;;;;;16.43;9.97;;;;;;;;;;5081796;28;20332;-82
2023/03/30 00:03:21;;;;;;;18.00;10.33;;;;;;;;;;5089430;28;20228;-83
2023/03/30 00:05:50;;;;;;;21.90;10.87;;;;;;;;;;5088609;28;20194;-83
2023/03/30 00:08:17;;;;;;;15.13;9.57;;;;;;;;;;5090057;28;20264;-82
2023/03/30 00:10:43;;;;;;;14.03;8.83;;;;;;;;;;5091645;28;20198;-82
2023/03/30 00:13:10;;;;;;;16.33;10.47;;;;;;;;;;5109504;28;20172;-82
2023/03/30 00:15:36;;;;;;;16.23;10.13;;;;;;;;;;5086220;28;20247;-83
2023/03/30 00:18:02;;;;;;;18.83;9.63;;;;;;;;;;5081299;28;20219;-83
2023/03/30 00:20:32;;;;;;;18.30;10.23;;;;;;;;;;5079131;28;20240;-83
2023/03/30 00:22:58;;;;;;;15.90;10.00;;;;;;;;;;5072866;28;20225;-83
2023/03/30 00:25:25;;;;;;;16.57;11.10;;;;;;;;;;5079510;28;20616;-82
2023/03/30 00:27:51;;;;;;;19.00;10.63;;;;;;;;;;5059709;28;20202;-83
2023/03/30 00:30:17;;;;;;;18.57;10.17;;;;;;;;;;5063174;28;20182;-83
2023/03/30 00:32:46;;;;;;;15.70;9.57;;;;;;;;;;5063042;28;20177;-82
2023/03/30 00:35:13;;;;;;;17.63;10.50;;;;;;;;;;5060874;28;20188;-82
2023/03/30 00:37:40;;;;;;;17.27;10.43;;;;;;;;;;5051735;28;20300;-82
2023/03/30 00:40:13;;;;;;;18.40;10.40;;;;;;;;;;5066701;28;20238;-82
2023/03/30 00:42:39;;;;;;;16.10;10.10;;;;;;;;;;5064796;28;20184;-82
2023/03/30 00:45:17;;;;;;;17.20;10.93;;;;;;;;;;5056418;28;20658;-83
2023/03/30 00:47:45;;;;;;;17.77;10.57;;;;;;;;;;5063126;28;20212;-82
2023/03/30 00:50:12;;;;;;;17.10;10.00;;;;;;;;;;5062178;28;20185;-82
2023/03/30 00:52:39;;;;;;;15.47;10.10;;;;;;;;;;5072571;28;20178;-82
2023/03/30 00:55:06;;;;;;;17.60;10.23;;;;;;;;;;5082975;28;20764;-82
2023/03/30 00:57:34;;;;;;;20.17;11.00;;;;;;;;;;5054763;28;20182;-82
2023/03/30 01:00:24;;;;;;;16.67;10.67;;;;;;;;;;5068785;28;20648;-82
2023/03/30 01:02:54;;;;;;;18.17;11.10;;;;;;;;;;5062391;28;20277;-82
2023/03/30 01:05:22;;;;;;;18.70;10.70;;;;;;;;;;5066210;28;20251;-82
2023/03/30 01:07:49;;;;;;;16.20;10.97;;;;;;;;;;5082187;28;20197;-83
2023/03/30 01:10:15;;;;;;;18.13;11.30;;;;;;;;;;5058161;28;20170;-82
2023/03/30 01:12:42;;;;;;;19.27;10.93;;;;;;;;;;5069451;28;20644;-82
2023/03/30 01:15:08;;;;;;;17.57;11.07;;;;;;;;;;5065959;28;20177;-82
2023/03/30 01:17:44;;;;;;;18.57;10.73;;;;;;;;;;5064933;28;20189;-82
2023/03/30 01:20:22;;;;;;;18.53;10.93;;;;;;;;;;5056659;28;20189;-81
2023/03/30 01:23:07;;;;;;;17.13;11.30;;;;;;;;;;5055671;28;20244;-81
2023/03/30 01:25:55;;;;;;;18.40;11.47;;;;;;;;;;5073970;28;20177;-81
2023/03/30 01:28:30;;;;;;;19.20;11.53;;;;;;;;;;5059015;28;20702;-81
2023/03/30 01:31:15;;;;;;;18.17;11.60;;;;;;;;;;5071184;28;20271;-81
2023/03/30 01:33:47;;;;;;;19.67;11.47;;;;;;;;;;5062654;28;20180;-81
2023/03/30 01:36:25;;;;;;;18.83;10.80;;;;;;;;;;5066032;28;20193;-81
2023/03/30 01:38:51;;;;;;;19.97;11.87;;;;;;;;;;5069342;28;20235;-82
2023/03/30 01:41:28;;;;;;;19.07;10.67;;;;;;;;;;5073986;28;20192;-82
2023/03/30 01:44:06;;;;;;;18.07;11.30;;;;;;;;;;5074758;28;20177;-82
2023/03/30 01:46:34;;;;;;;21.37;11.63;;;;;;;;;;5056523;28;20177;-81
2023/03/30 01:49:14;;;;;;;18.67;10.40;;;;;;;;;;5058392;28;20185;-81
2023/03/30 01:51:42;;;;;;;18.67;11.07;;;;;;;;;;5072550;28;20532;-81
2023/03/30 01:54:12;;;;;;;20.67;11.23;;;;;;;;;;5068219;28;20181;-81
2023/03/30 01:56:43;;;;;;;18.77;11.53;;;;;;;;;;5067975;28;20200;-82
2023/03/30 01:59:12;;;;;;;20.50;11.37;;;;;;;;;;5072609;28;20188;-82
2023/03/30 02:01:40;;;;;;;19.43;11.20;;;;;;;;;;5056473;28;20576;-82
2023/03/30 02:04:08;;;;;;;20.17;11.30;;;;;;;;;;5065576;28;20308;-82
2023/03/30 02:06:41;;;;;;;20.70;10.87;;;;;;;;;;5061216;28;20223;-81
2023/03/30 02:09:10;;;;;;;16.63;10.10;;;;;;;;;;5062031;28;20182;-81
2023/03/30 02:11:38;;;;;;;15.93;11.43;;;;;;;;;;5071980;28;20651;-81
2023/03/30 02:14:05;;;;;;;18.63;11.20;;;;;;;;;;5073734;28;20235;-81
2023/03/30 02:16:41;;;;;;;18.63;11.50;;;;;;;;;;5069238;28;20180;-81
2023/03/30 02:19:07;;;;;;;17.90;11.17;;;;;;;;;;5060649;28;20231;-82
2023/03/30 02:21:34;;;;;;;21.87;12.80;;;;;;;;;;5070195;28;20716;-81
2023/03/30 02:24:02;;;;;;;21.77;11.70;;;;;;;;;;5066301;28;20225;-81
2023/03/30 02:26:29;;;;;;;16.93;11.20;;;;;;;;;;5056868;28;20182;-81
2023/03/30 02:28:55;;;;;;;18.20;11.00;;;;;;;;;;5065300;28;20185;-81
2023/03/30 02:31:21;;;;;;;15.90;11.00;;;;;;;;;;5060306;28;20303;-81
2023/03/30 02:33:53;;;;;;;18.40;11.10;;;;;;;;;;5063657;28;20223;-81
2023/03/30 02:36:28;;;;;;;21.67;11.90;;;;;;;;;;5065379;28;20186;-81
2023/03/30 02:39:06;;;;;;;21.50;11.63;;;;;;;;;;5072103;28;20582;-81
2023/03/30 02:41:35;;;;;;;20.27;11.47;;;;;;;;;;5071027;28;20646;-82
2023/03/30 02:44:20;;;;;;;15.50;11.00;;;;;;;;;;5068255;28;20235;-81
2023/03/30 02:47:04;;;;;;;19.20;11.43;;;;;;;;;;5064471;28;20202;-82
2023/03/30 02:49:40;;;;;;;22.00;12.50;;;;;;;;;;5077276;28;20743;-81
2023/03/30 02:52:09;;;;;;;18.97;11.70;;;;;;;;;;5068406;28;20179;-82
2023/03/30 02:54:46;;;;;;;20.73;11.03;;;;;;;;;;5067837;28;20192;-82
2023/03/30 02:57:35;;;;;;;23.20;11.27;;;;;;;;;;5057713;28;20189;-82
2023/03/30 03:00:07;;;;;;;19.33;11.73;;;;;;;;;;5023792;28;20187;-82
2023/03/30 03:02:36;;;;;;;16.93;10.70;;;;;;;;;;5011668;28;20672;-82
2023/03/30 03:05:03;;;;;;;18.97;11.77;;;;;;;;;;5008012;28;20241;-82
2023/03/30 03:07:32;;;;;;;20.33;11.40;;;;;;;;;;5019317;28;20648;-81
2023/03/30 03:09:58;;;;;;;18.97;11.43;;;;;;;;;;5027788;28;20178;-82
2023/03/30 03:12:25;;;;;;;20.10;11.93;;;;;;;;;;5021388;28;20199;-81
2023/03/30 03:14:52;;;;;;;19.23;12.33;;;;;;;;;;5022521;28;20554;-82
2023/03/30 03:17:21;;;;;;;19.50;11.50;;;;;;;;;;5022474;28;20589;-81
2023/03/30 03:19:50;;;;;;;20.83;11.13;;;;;;;;;;5016156;28;20193;-82
2023/03/30 03:22:16;;;;;;;23.07;12.00;;;;;;;;;;5032614;28;20626;-82
2023/03/30 03:24:43;;;;;;;20.60;11.87;;;;;;;;;;5050026;28;20247;-82
2023/03/30 03:27:10;;;;;;;22.77;12.60;;;;;;;;;;5033759;28;20209;-82
2023/03/30 03:29:37;;;;;;;19.50;12.20;;;;;;;;;;5049955;28;20193;-82
2023/03/30 03:32:03;;;;;;;18.23;11.37;;;;;;;;;;5050684;28;20193;-81
2023/03/30 03:34:30;;;;;;;18.07;12.00;;;;;;;;;;5050408;28;20180;-81
2023/03/30 03:36:56;;;;;;;22.27;12.33;;;;;;;;;;5059035;28;20193;-81
2023/03/30 03:39:22;;;;;;;19.20;11.63;;;;;;;;;;5087066;28;20196;-81
2023/03/30 03:41:49;;;;;;;21.03;11.67;;;;;;;;;;5090662;28;20331;-82
2023/03/30 03:44:15;;;;;;;19.33;11.57;;;;;;;;;;5089989;28;20208;-82
2023/03/30 03:46:41;;;;;;;22.43;12.50;;;;;;;;;;5093534;28;20726;-81
2023/03/30 03:49:07;;;;;;;19.77;11.03;;;;;;;;;;5076106;28;20177;-82
2023/03/30 03:51:34;;;;;;;19.40;12.20;;;;;;;;;;5080585;28;20192;-82
2023/03/30 03:54:00;;;;;;;20.53;11.80;;;;;;;;;;5086100;28;20267;-82
2023/03/30 03:56:26;;;;;;;16.63;11.47;;;;;;;;;;5077271;28;20185;-82
2023/03/30 03:58:52;;;;;;;22.93;12.97;;;;;;;;;;5081943;28;20541;-81
2023/03/30 04:01:18;;;;;;;22.80;12.73;;;;;;;;;;5075681;28;20179;-81
2023/03/30 04:03:44;;;;;;;21.17;11.80;;;;;;;;;;5080217;28;20717;-82
2023/03/30 04:06:10;;;;;;;19.87;12.80;;;;;;;;;;5080630;28;20269;-84
2023/03/30 04:08:36;;;;;;;21.73;12.30;;;;;;;;;;5080268;28;20231;-84
2023/03/30 04:11:10;;;;;;;19.00;12.20;;;;;;;;;;5078733;28;20283;-82
2023/03/30 04:13:37;;;;;;;22.27;12.33;;;;;;;;;;5080064;28;20267;-82
2023/03/30 04:16:03;;;;;;;23.20;12.90;;;;;;;;;;5085583;28;20269;-82
2023/03/30 04:18:33;;;;;;;17.27;11.53;;;;;;;;;;5075507;28;20273;-82
2023/03/30 04:21:01;;;;;;;19.53;12.03;;;;;;;;;;5090161;28;20191;-81
2023/03/30 04:23:29;;;;;;;18.60;12.00;;;;;;;;;;5089899;28;20216;-82
2023/03/30 04:25:56;;;;;;;19.73;11.23;;;;;;;;;;5088720;28;20271;-81
2023/03/30 04:28:23;;;;;;;21.67;12.10;;;;;;;;;;5090879;28;20200;-82
2023/03/30 04:30:49;;;;;;;19.00;11.93;;;;;;;;;;5088296;28;20221;-81
2023/03/30 04:33:15;;;;;;;21.53;12.90;;;;;;;;;;5090007;28;20207;-81
2023/03/30 04:35:41;;;;;;;20.17;12.10;;;;;;;;;;5075170;28;20551;-81
2023/03/30 04:38:07;;;;;;;26.13;12.93;;;;;;;;;;5074953;28;20177;-80
2023/03/30 04:40:33;;;;;;;21.27;13.23;;;;;;;;;;5093778;28;20172;-81
2023/03/30 04:43:00;;;;;;;21.40;12.53;;;;;;;;;;5092446;28;20179;-81
2023/03/30 04:45:27;;;;;;;21.53;13.07;;;;;;;;;;5091851;28;20180;-80
2023/03/30 04:47:53;;;;;;;23.40;12.37;;;;;;;;;;5093999;28;20207;-80
2023/03/30 04:50:19;;;;;;;20.47;12.17;;;;;;;;;;5091310;28;20642;-80
2023/03/30 04:52:45;;;;;;;24.37;12.13;;;;;;;;;;5084084;28;20177;-81
2023/03/30 04:55:11;;;;;;;24.97;12.93;;;;;;;;;;5093898;28;20169;-80
2023/03/30 04:57:38;;;;;;;20.60;12.53;;;;;;;;;;5086719;28;20177;-80
2023/03/30 05:00:06;;;;;;;19.93;12.53;;;;;;;;;;5086285;28;20189;-83
2023/03/30 05:02:32;;;;;;;20.97;11.63;;;;;;;;;;5093139;28;20176;-81
2023/03/30 05:04:58;;;;;;;22.97;12.73;;;;;;;;;;5091705;28;20184;-80
2023/03/30 05:07:24;;;;;;;19.27;12.63;;;;;;;;;;5089566;28;20211;-83
2023/03/30 05:09:51;;;;;;;23.10;13.37;;;;;;;;;;5090554;28;20244;-81
2023/03/30 05:12:17;;;;;;;21.93;12.50;;;;;;;;;;5093366;28;20184;-81
2023/03/30 05:14:43;;;;;;;20.47;12.80;;;;;;;;;;5090107;28;20192;-80
2023/03/30 05:17:09;;;;;;;21.83;13.27;;;;;;;;;;5091216;28;20657;-80
2023/03/30 05:19:35;;;;;;;24.90;13.17;;;;;;;;;;5092241;28;20263;-82
2023/03/30 05:22:01;;;;;;;20.30;13.37;;;;;;;;;;5092674;28;20263;-80
2023/03/30 05:24:27;;;;;;;21.73;12.80;;;;;;;;;;5094740;28;20647;-81
2023/03/30 05:26:53;;;;;;;22.13;13.27;;;;;;;;;;5095735;28;20291;-82
2023/03/30 05:29:19;;;;;;;20.80;13.43;;;;;;;;;;5110705;28;20206;-82
2023/03/30 05:31:45;;;;;;;20.73;12.90;;;;;;;;;;5095879;28;20187;-82
2023/03/30 05:34:11;;;;;;;18.53;11.70;;;;;;;;;;5101465;28;20176;-82
2023/03/30 05:36:37;;;;;;;19.00;13.00;;;;;;;;;;5090679;28;20270;-82
2023/03/30 05:39:04;;;;;;;20.37;12.37;;;;;;;;;;5113378;28;20192;-82
2023/03/30 05:41:30;;;;;;;26.57;13.27;;;;;;;;;;5096151;28;20261;-82
2023/03/30 05:43:56;;;;;;;24.17;13.47;;;;;;;;;;5113798;28;20198;-81
2023/03/30 05:46:22;;;;;;;18.37;12.17;;;;;;;;;;5095783;28;20167;-83
2023/03/30 05:48:49;;;;;;;26.03;14.17;;;;;;;;;;5089694;28;20215;-82
2023/03/30 05:51:15;;;;;;;20.87;13.07;;;;;;;;;;5110486;28;20187;-82
2023/03/30 05:53:41;;;;;;;22.57;12.87;;;;;;;;;;5095324;28;20175;-82
2023/03/30 05:56:09;;;;;;;20.00;13.27;;;;;;;;;;5092760;28;20186;-81
2023/03/30 05:58:35;;;;;;;21.30;13.20;;;;;;;;;;5085346;28;20176;-82
2023/03/30 06:01:03;;;;;;;23.93;13.07;;;;;;;;;;5080279;28;21289;-81
2023/03/30 06:03:29;;;;;;;20.87;12.83;;;;;;;;;;5081293;28;20195;-82
2023/03/30 06:05:55;;;;;;;26.33;13.40;;;;;;;;;;5098352;28;20221;-81
2023/03/30 06:08:21;;;;;;;20.90;13.03;;;;;;;;;;5081782;28;20333;-82
2023/03/30 06:10:54;;;;;;;27.07;15.50;;;;;;;;;;5113087;28;20171;-82
2023/03/30 06:13:20;;;;;;;23.90;14.77;;;;;;;;;;5095060;28;20213;-82
2023/03/30 06:15:47;;;;;;;22.60;14.07;;;;;;;;;;5090255;28;20180;-82
2023/03/30 06:18:13;;;;;;;24.43;14.40;;;;;;;;;;5088632;28;20598;-82
2023/03/30 06:20:39;;;;;;;27.83;13.50;;;;;;;;;;5083229;28;20685;-83
2023/03/30 06:23:05;;;;;;;22.17;12.80;;;;;;;;;;5093694;28;20560;-82
2023/03/30 06:25:31;;;;;;;23.67;13.50;;;;;;;;;;5091544;28;20172;-83
2023/03/30 06:27:57;;;;;;;27.73;13.80;;;;;;;;;;5092799;28;20215;-82
2023/03/30 06:30:23;;;;;;;23.53;13.83;;;;;;;;;;5112248;28;20587;-82
2023/03/30 06:32:49;;;;;;;24.93;13.47;;;;;;;;;;5095279;28;20240;-82
2023/03/30 06:35:15;;;;;;;23.13;13.23;;;;;;;;;;5110547;28;20180;-82
2023/03/30 06:37:41;;;;;;;22.83;13.97;;;;;;;;;;5113282;28;20184;-82
2023/03/30 06:40:14;;;;;;;22.67;12.87;;;;;;;;;;5093120;28;20175;-82
2023/03/30 06:42:42;;;;;;;23.27;13.33;;;;;;;;;;5093527;28;20226;-83
2023/03/30 06:45:09;;;;;;;21.57;13.47;;;;;;;;;;5094617;28;20190;-82
2023/03/30 06:47:36;;;;;;;17.93;13.00;;;;;;;;;;5094629;28;20211;-83
2023/03/30 06:50:02;;;;;;;22.90;14.07;;;;;;;;;;5111948;28;20262;-83
2023/03/30 06:52:28;;;;;;;20.20;13.00;;;;;;;;;;5091554;28;20183;-82
2023/03/30 06:54:54;;;;;;;21.77;13.30;;;;;;;;;;5091651;28;20180;-82
2023/03/30 06:57:20;;;;;;;17.77;12.47;;;;;;;;;;5095347;28;20187;-81
2023/03/30 06:59:46;;;;;;;22.57;13.33;;;;;;;;;;5093523;28;20211;-83
2023/03/30 07:02:13;;;;;;;24.57;14.37;;;;;;;;;;5109705;28;20650;-82
2023/03/30 07:04:39;;;;;;;21.83;13.60;;;;;;;;;;5114314;28;20308;-82
2023/03/30 07:07:05;;;;;;;21.57;14.17;;;;;;;;;;5094552;28;20263;-82
2023/03/30 07:09:31;;;;;;;22.03;13.77;;;;;;;;;;5109723;28;20262;-82
2023/03/30 07:11:57;;;;;;;22.93;14.27;;;;;;;;;;5094598;28;20226;-82
2023/03/30 07:14:23;;;;;;;23.87;13.20;;;;;;;;;;5091554;28;20184;-83
2023/03/30 07:16:49;;;;;;;20.80;13.30;;;;;;;;;;5109779;28;20254;-83
2023/03/30 07:19:15;;;;;;;21.27;14.00;;;;;;;;;;5092274;28;20175;-82
2023/03/30 07:21:42;;;;;;;22.87;14.03;;;;;;;;;;5091530;28;20184;-83
2023/03/30 07:24:08;;;;;;;22.47;13.50;;;;;;;;;;5093498;28;20718;-83
2023/03/30 07:26:34;;;;;;;22.77;13.27;;;;;;;;;;5094089;28;20212;-82
2023/03/30 07:29:00;;;;;;;18.27;12.33;;;;;;;;;;5111165;28;20251;-82
2023/03/30 07:31:26;;;;;;;18.47;13.07;;;;;;;;;;5093578;28;20175;-83
2023/03/30 07:33:52;;;;;;;23.10;12.77;;;;;;;;;;5109350;28;20187;-83
2023/03/30 07:36:18;;;;;;;22.30;13.33;;;;;;;;;;5094299;28;20183;-83
2023/03/30 07:38:45;;;;;;;21.43;13.63;;;;;;;;;;5094366;28;20545;-83
2023/03/30 07:41:12;;;;;;;20.77;13.20;;;;;;;;;;5109985;28;20172;-83
2023/03/30 07:43:41;;;;;;;18.87;12.57;;;;;;;;;;5094253;28;20618;-82
2023/03/30 07:46:09;;;;;;;26.47;13.20;;;;;;;;;;5093493;28;20546;-83
2023/03/30 07:48:35;;;;;;;21.93;13.40;;;;;;;;;;5093658;28;20298;-83
2023/03/30 07:51:03;;;;;;;18.23;12.73;;;;;;;;;;5093928;28;20247;-83
2023/03/30 07:53:29;;;;;;;20.53;13.23;;;;;;;;;;5111244;28;20187;-81
2023/03/30 07:55:55;;;;;;;20.43;13.87;;;;;;;;;;5110641;28;20178;-83
2023/03/30 07:58:21;;;;;;;25.10;13.23;;;;;;;;;;5077069;28;20172;-83
2023/03/30 08:00:47;;;;;;;21.50;14.77;;;;;;;;;;5087734;28;20187;-82
2023/03/30 08:03:13;;;;;;;23.00;14.73;;;;;;;;;;5090891;28;20274;-82
2023/03/30 08:05:39;;;;;;;21.30;14.03;;;;;;;;;;5108067;28;20622;-83
2023/03/30 08:08:06;;;;;;;22.23;14.00;;;;;;;;;;5110152;28;20212;-82
2023/03/30 08:10:33;;;;;;;19.53;14.40;;;;;;;;;;5093121;28;20530;-83
2023/03/30 08:12:59;;;;;;;19.23;14.03;;;;;;;;;;5089951;28;20194;-83
2023/03/30 08:15:25;;;;;;;20.20;14.17;;;;;;;;;;5087553;28;20191;-83
2023/03/30 08:17:51;;;;;;;23.70;13.70;;;;;;;;;;5093529;28;20191;-83
2023/03/30 08:20:17;;;;;;;24.07;14.33;;;;;;;;;;5091302;28;20177;-83
2023/03/30 08:22:43;;;;;;;21.83;14.33;;;;;;;;;;5093659;28;20268;-83
2023/03/30 08:25:10;;;;;;;21.73;14.33;;;;;;;;;;5108384;28;20191;-82
2023/03/30 08:27:36;;;;;;;21.70;13.63;;;;;;;;;;5091919;28;20218;-82
2023/03/30 08:30:03;;;;;;;20.37;13.40;;;;;;;;;;5093688;28;20175;-82
2023/03/30 08:32:29;;;;;;;20.53;13.97;;;;;;;;;;5108964;28;20180;-83
2023/03/30 08:34:55;;;;;;;19.33;13.50;;;;;;;;;;5111008;28;20175;-83
2023/03/30 08:37:21;;;;;;;20.27;14.27;;;;;;;;;;5094372;28;20179;-83
2023/03/30 08:39:47;;;;;;;28.53;17.60;;;;;;;;;;5092985;28;20653;-82
2023/03/30 08:42:16;;;;;;;24.40;16.67;;;;;;;;;;5109824;28;20183;-83
2023/03/30 08:44:43;;;;;;;23.87;16.40;;;;;;;;;;5091759;28;20175;-83
2023/03/30 08:47:19;;;;;;;25.97;16.93;;;;;;;;;;5090744;28;20324;-83
2023/03/30 08:49:54;;;;;;;22.30;14.80;;;;;;;;;;5108187;28;20193;-83
2023/03/30 08:52:23;;;;;;;26.93;16.03;;;;;;;;;;5111630;28;20175;-83
2023/03/30 08:54:50;;;;;;;22.17;15.80;;;;;;;;;;5109429;28;20195;-83
2023/03/30 08:57:32;;;;;;;26.93;18.77;;;;;;;;;;5091565;28;20180;-82
2023/03/30 09:00:05;;;;;;;34.43;25.20;;;;;;;;;;5092523;28;20172;-82
2023/03/30 09:02:33;;;;;;;23.43;16.77;;;;;;;;;;5093490;28;20191;-83
2023/03/30 09:05:03;;;;;;;19.03;14.40;;;;;;;;;;5092898;28;20342;-83
2023/03/30 09:07:37;;;;;;;19.53;13.73;;;;;;;;;;5110660;28;20564;-82
2023/03/30 09:10:03;;;;;;;18.90;13.93;;;;;;;;;;5110973;28;20183;-83
2023/03/30 09:12:47;;;;;;;25.43;14.17;;;;;;;;;;5092952;28;20657;-83
2023/03/30 09:15:20;;;;;;;18.00;13.17;;;;;;;;;;5088713;28;20274;-83
2023/03/30 09:17:48;;;;;;;19.13;12.53;;;;;;;;;;5093064;28;20191;-83
2023/03/30 09:20:22;;;;;;;17.73;12.87;;;;;;;;;;5109054;28;20173;-83
2023/03/30 09:22:49;;;;;;;15.27;11.47;;;;;;;;;;5090208;28;20280;-82
2023/03/30 09:25:36;;;;;;;18.43;13.23;;;;;;;;;;5112322;28;20198;-83
2023/03/30 09:28:34;;;;;;;18.97;12.27;;;;;;;;;;5091312;28;20230;-83
2023/03/30 09:31:07;;;;;;;15.43;11.50;;;;;;;;;;4996073;28;20237;-82
2023/03/30 09:33:38;;;;;;;18.03;12.50;;;;;;;;;;5017574;28;20708;-83
2023/03/30 09:36:32;;;;;;;17.40;11.60;;;;;;;;;;5016673;28;20694;-83
2023/03/30 09:38:58;;;;;;;16.33;11.67;;;;;;;;;;4974948;28;20204;-82
2023/03/30 09:41:24;;;;;;;18.03;12.10;;;;;;;;;;4978093;28;20209;-83
2023/03/30 09:43:51;;;;;;;15.17;12.10;;;;;;;;;;4980104;28;20192;-82
2023/03/30 09:46:17;;;;;;;16.73;11.70;;;;;;;;;;4977960;28;20177;-82
2023/03/30 09:48:44;;;;;;;18.80;12.17;;;;;;;;;;4976736;28;20215;-82
2023/03/30 09:51:28;;;;;;;19.43;11.83;;;;;;;;;;4972435;28;20267;-83
2023/03/30 09:54:01;;;;;;;18.73;12.47;;;;;;;;;;4981237;28;20531;-83
2023/03/30 09:56:27;;;;;;;22.87;11.80;;;;;;;;;;4969978;28;20343;-82
2023/03/30 09:58:55;;;;;;;16.53;12.13;;;;;;;;;;4969340;28;20275;-83
2023/03/30 10:01:22;;;;;;;18.07;12.63;;;;;;;;;;4967842;28;20712;-83
2023/03/30 10:04:08;;;;;;;19.70;11.83;;;;;;;;;;4968470;28;20200;-83
2023/03/30 10:06:39;;;;;;;16.83;12.20;;;;;;;;;;5011847;28;20274;-82
2023/03/30 10:09:07;;;;;;;16.50;12.30;;;;;;;;;;5031599;28;20289;-82
2023/03/30 10:11:39;;;;;;;16.70;12.13;;;;;;;;;;5030540;28;20193;-82
2023/03/30 10:14:06;;;;;;;16.17;12.00;;;;;;;;;;5034217;28;20185;-83
2023/03/30 10:16:32;;;;;;;18.50;11.27;;;;;;;;;;5104408;28;20183;-82
2023/03/30 10:19:00;;;;;;;16.63;12.30;;;;;;;;;;5087729;28;20552;-81
2023/03/30 10:21:29;;;;;;;16.00;10.93;;;;;;;;;;5095219;28;20187;-82
2023/03/30 10:24:13;;;;;;;16.33;11.50;;;;;;;;;;5092131;28;20211;-83
2023/03/30 10:26:43;;;;;;;13.97;11.10;;;;;;;;;;5095259;28;20180;-83
2023/03/30 10:29:11;;;;;;;15.70;10.83;;;;;;;;;;5093442;28;20213;-82
2023/03/30 10:31:38;;;;;;;15.07;11.20;;;;;;;;;;5114637;28;20247;-82
2023/03/30 10:34:07;;;;;;;14.40;11.70;;;;;;;;;;5112857;28;20184;-83
2023/03/30 10:36:36;;;;;;;17.93;11.23;;;;;;;;;;5111549;28;20187;-83
2023/03/30 10:39:05;;;;;;;17.33;12.07;;;;;;;;;;5094537;28;20638;-83
2023/03/30 10:41:31;;;;;;;16.77;12.00;;;;;;;;;;5095210;28;20279;-84
2023/03/30 10:44:04;;;;;;;20.63;13.07;;;;;;;;;;5113521;28;20526;-82
2023/03/30 10:46:30;;;;;;;18.63;13.10;;;;;;;;;;5113802;28;20580;-82
2023/03/30 10:49:16;;;;;;;16.40;12.60;;;;;;;;;;5111048;28;20242;-83
2023/03/30 10:51:42;;;;;;;20.47;15.53;;;;;;;;;;5088379;28;20179;-82
2023/03/30 10:54:08;;;;;;;18.27;13.30;;;;;;;;;;5110509;28;20694;-83
2023/03/30 10:56:48;;;;;;;16.60;12.83;;;;;;;;;;5092012;28;20530;-83
2023/03/30 10:59:29;;;;;;;22.27;16.57;;;;;;;;;;5079529;28;20224;-82
2023/03/30 11:01:55;;;;;;;20.37;15.60;;;;;;;;;;5110075;28;20178;-82
2023/03/30 11:04:25;;;;;;;18.83;12.13;;;;;;;;;;5112062;28;20172;-81
2023/03/30 11:06:52;;;;;;;18.00;13.30;;;;;;;;;;5094336;28;20258;-83
2023/03/30 11:09:21;;;;;;;17.03;12.23;;;;;;;;;;5091399;28;20172;-83
2023/03/30 11:11:49;;;;;;;18.80;11.30;;;;;;;;;;5094911;28;20223;-83
2023/03/30 11:14:19;;;;;;;13.63;10.33;;;;;;;;;;5111463;28;20790;-81
2023/03/30 11:16:58;;;;;;;18.40;11.70;;;;;;;;;;5090950;28;20203;-82
2023/03/30 11:19:27;;;;;;;14.60;10.30;;;;;;;;;;5095242;28;20179;-83
2023/03/30 11:22:04;;;;;;;15.20;11.03;;;;;;;;;;5092950;28;20186;-83
2023/03/30 11:24:30;;;;;;;17.53;11.17;;;;;;;;;;5109826;28;20201;-83
2023/03/30 11:27:12;;;;;;;13.40;10.77;;;;;;;;;;5093714;28;20267;-82
2023/03/30 11:29:43;;;;;;;14.07;10.67;;;;;;;;;;5096614;28;20180;-82
2023/03/30 11:32:09;;;;;;;12.77;10.47;;;;;;;;;;5093554;28;20168;-82
2023/03/30 11:34:41;;;;;;;17.60;9.60;;;;;;;;;;5090786;28;20183;-82
2023/03/30 11:37:15;;;;;;;17.27;11.13;;;;;;;;;;5094235;28;20267;-82
2023/03/30 11:39:47;;;;;;;14.20;10.90;;;;;;;;;;5094333;28;20179;-82
2023/03/30 11:42:13;;;;;;;18.20;11.77;;;;;;;;;;5111147;28;20249;-82
2023/03/30 11:44:39;;;;;;;15.37;11.10;;;;;;;;;;5094179;28;20180;-82
2023/03/30 11:47:25;;;;;;;16.37;11.80;;;;;;;;;;5093302;28;20199;-82
2023/03/30 11:49:54;;;;;;;18.10;11.30;;;;;;;;;;5073800;28;20176;-82
2023/03/30 11:52:20;;;;;;;16.93;10.83;;;;;;;;;;5094111;28;20176;-83
2023/03/30 11:54:57;;;;;;;16.47;11.50;;;;;;;;;;5090775;28;20237;-83
2023/03/30 11:57:34;;;;;;;17.13;11.23;;;;;;;;;;5093898;28;20202;-83
2023/03/30 12:00:08;;;;;;;17.33;12.40;;;;;;;;;;5090541;28;20179;-83
2023/03/30 12:02:34;;;;;;;16.17;10.80;;;;;;;;;;5093968;28;20576;-82
2023/03/30 12:05:10;;;;;;;13.27;10.97;;;;;;;;;;5093053;28;20263;-83
2023/03/30 12:07:45;;;;;;;15.87;10.73;;;;;;;;;;5087633;28;20204;-82
2023/03/30 12:10:17;;;;;;;14.17;10.37;;;;;;;;;;5091994;28;20171;-82
2023/03/30 12:12:44;;;;;;;12.17;9.73;;;;;;;;;;5108485;28;20180;-82
2023/03/30 12:15:29;;;;;;;14.13;11.03;;;;;;;;;;5105483;28;20179;-83
2023/03/30 12:17:58;;;;;;;12.67;9.93;;;;;;;;;;5108242;28;20190;-82
2023/03/30 12:20:53;;;;;;;15.00;9.80;;;;;;;;;;5110219;28;20259;-82
2023/03/30 12:23:22;;;;;;;13.77;9.20;;;;;;;;;;5096151;28;20227;-82
2023/03/30 12:26:07;;;;;;;14.27;9.43;;;;;;;;;;5089614;28;20270;-82
2023/03/30 12:28:59;;;;;;;11.80;8.93;;;;;;;;;;5097853;28;20211;-82
2023/03/30 12:31:48;;;;;;;11.93;8.73;;;;;;;;;;5009771;28;20661;-82
2023/03/30 12:34:15;;;;;;;13.20;9.37;;;;;;;;;;5002632;28;20183;-82
2023/03/30 12:36:41;;;;;;;14.77;9.83;;;;;;;;;;5009330;28;20187;-82
2023/03/30 12:39:16;;;;;;;10.83;8.43;;;;;;;;;;5008865;28;20179;-82
2023/03/30 12:41:47;;;;;;;14.67;8.50;;;;;;;;;;5008657;28;20327;-82
2023/03/30 12:44:13;;;;;;;12.83;8.93;;;;;;;;;;5009228;28;20190;-82
2023/03/30 12:46:48;;;;;;;13.10;8.23;;;;;;;;;;5009874;28;20179;-83
2023/03/30 12:49:17;;;;;;;12.37;8.33;;;;;;;;;;5008610;28;20202;-81
2023/03/30 12:51:49;;;;;;;12.27;7.30;;;;;;;;;;5010412;28;20656;-82
2023/03/30 12:54:30;;;;;;;9.33;6.90;;;;;;;;;;5012945;28;20677;-82
2023/03/30 12:57:07;;;;;;;9.47;7.80;;;;;;;;;;4996444;28;20351;-82
2023/03/30 12:59:48;;;;;;;11.93;8.13;;;;;;;;;;4991663;28;20189;-82
2023/03/30 13:02:27;;;;;;;13.73;9.87;;;;;;;;;;5011499;28;20310;-83
2023/03/30 13:04:53;;;;;;;10.37;6.90;;;;;;;;;;5013208;28;20182;-82
2023/03/30 13:07:22;;;;;;;9.07;7.00;;;;;;;;;;5023942;28;20234;-82
2023/03/30 13:09:53;;;;;;;9.27;6.27;;;;;;;;;;5088705;28;20680;-81
2023/03/30 13:12:39;;;;;;;9.30;5.87;;;;;;;;;;5097087;28;20189;-82
2023/03/30 13:15:24;;;;;;;8.97;5.87;;;;;;;;;;5096232;28;20171;-82
2023/03/30 13:18:01;;;;;;;8.27;5.63;;;;;;;;;;5096511;28;20278;-83
2023/03/30 13:20:34;;;;;;;6.70;5.17;;;;;;;;;;5099186;28;20180;-84
2023/03/30 13:23:03;;;;;;;11.40;5.97;;;;;;;;;;5099133;28;20234;-81
2023/03/30 13:25:38;;;;;;;8.80;5.97;;;;;;;;;;5102907;28;20180;-82
2023/03/30 13:28:24;;;;;;;8.50;5.47;;;;;;;;;;5116484;28;20352;-84
2023/03/30 13:30:52;;;;;;;9.80;5.27;;;;;;;;;;5112360;28;20204;-84
2023/03/30 13:33:20;;;;;;;8.87;5.93;;;;;;;;;;5092626;28;20195;-83
2023/03/30 13:35:50;;;;;;;8.10;5.80;;;;;;;;;;5082079;28;20319;-83
2023/03/30 13:38:26;;;;;;;11.53;5.83;;;;;;;;;;5114272;28;20215;-82
2023/03/30 13:41:04;;;;;;;9.60;5.43;;;;;;;;;;5092944;28;20180;-83
2023/03/30 13:43:49;;;;;;;9.37;4.97;;;;;;;;;;5091563;28;20561;-84
2023/03/30 13:46:15;;;;;;;7.03;5.17;;;;;;;;;;5112143;28;20187;-83
2023/03/30 13:49:00;;;;;;;6.57;4.77;;;;;;;;;;5095899;28;20208;-83
2023/03/30 13:51:28;;;;;;;10.10;4.90;;;;;;;;;;5111327;28;22499;-83
2023/03/30 13:53:58;;;;;;;9.47;5.10;;;;;;;;;;5099318;28;20313;-83
2023/03/30 13:56:26;;;;;;;5.80;4.20;;;;;;;;;;5094415;28;20323;-83
2023/03/30 13:59:06;;;;;;;8.40;4.97;;;;;;;;;;5114217;28;20176;-83
2023/03/30 14:01:33;;;;;;;8.00;5.10;;;;;;;;;;5095359;28;20183;-84
2023/03/30 14:04:02;;;;;;;6.97;5.10;;;;;;;;;;5110976;28;20185;-83
2023/03/30 14:06:33;;;;;;;7.63;5.10;;;;;;;;;;5104796;28;20759;-83
2023/03/30 14:09:05;;;;;;;8.77;5.40;;;;;;;;;;5092296;28;20210;-82
2023/03/30 14:11:34;;;;;;;9.93;5.50;;;;;;;;;;5111349;28;20740;-84
2023/03/30 14:14:02;;;;;;;9.03;4.97;;;;;;;;;;5093702;28;20208;-83
2023/03/30 14:16:31;;;;;;;7.10;5.03;;;;;;;;;;5093288;28;20219;-83
2023/03/30 14:19:26;;;;;;;10.53;4.83;;;;;;;;;;5094286;28;20187;-83
2023/03/30 14:21:57;;;;;;;10.27;4.77;;;;;;;;;;5092023;28;20179;-83
2023/03/30 14:24:28;;;;;;;9.97;5.00;;;;;;;;;;5097886;28;20196;-83
2023/03/30 14:26:58;;;;;;;6.17;4.93;;;;;;;;;;5091952;28;20180;-83
2023/03/30 14:29:24;;;;;;;9.80;5.17;;;;;;;;;;5112230;28;20175;-83
2023/03/30 14:31:50;;;;;;;8.40;5.50;;;;;;;;;;5093880;28;20925;-83
2023/03/30 14:34:34;;;;;;;9.63;5.77;;;;;;;;;;5092290;28;20175;-83
2023/03/30 14:37:07;;;;;;;7.27;5.63;;;;;;;;;;5110821;28;20183;-84